Aviation Digital Data Service (ADDS)

Output produced by METARs form (1930 UTC 18 June 2019)
found at http://www.aviationweather.gov/metar/data/
 
KBDR 181926Z 07009KT 040V110 7SM -RA OVC003 19/18 A2990 RMK AO2 RAE01B25 CIG 002V007 P0000 T01940183
KBDR 181902Z 1819/1918 07009KT 3SM -SHRA BR OVC002 
     FM182200 18006KT 3SM -SHRA OVC003 
     FM190000 VRB03KT 3SM BR VCSH BKN002 
     FM190100 05005KT 1SM BR VCSH OVC004 
     FM191200 14004KT 1SM BR VCSH OVC004 
     FM191500 18005KT 6SM HZ VCSH BKN015 OVC025
       
KDXR 181910Z 09009KT 4SM -RA BR BKN010 BKN030 OVC048 19/18 A2992 RMK AO2 P0003 T01940183
KGON 181926Z 11008KT 3SM -RA BR OVC003 19/17 A2991 RMK AO2 P0007 T01940172
KGON 181902Z 1819/1918 VRB05KT 2SM -SHRA BR BKN003 OVC020 
     FM182200 18006KT 2SM -SHRA BKN003 
     FM190000 VRB03KT 1SM BR VCSH BKN004 
     FM190100 05005KT 1SM BR VCSH OVC004 
     FM191200 14004KT 1SM BR VCSH OVC004 
     FM191500 18005KT 6SM HZ VCSH BKN015 OVC025
       
KHFD 181910Z 00000KT 5SM -RA BR SCT005 BKN009 OVC023 19/18 A2990 RMK AO2 P0000 T01940183
KMMK 181928Z AUTO 14004KT 4SM RA BR SCT008 BKN043 OVC060 21/19 A2991 RMK AO2 P0003 T02060189
KHVN 181900Z 13006KT 2SM R02/6000VP6000FT -RA BR OVC004 20/19 A2990 RMK AO2 P0001 T02000189
KOXC 181851Z 10008KT 2SM +RA BR BKN004 OVC047 19/19 A2992 RMK AO2 CIG 003V007 SLP141 P0014 T01890189
KIJD 181852Z AUTO 17005KT 6SM -RA BR FEW008 OVC022 20/19 A2993 RMK AO2 SLP134 P0005 T02000189
KBDL 181925Z 33003KT 10SM BKN007 OVC015 21/18 A2991 RMK AO2 RAE21 P0000 T02060178
KBDL 181732Z 1818/1924 02006KT 6SM -RA SCT005 BKN015 OVC025 
     FM182200 10004KT 6SM BR OVC015 
     FM190300 00000KT 6SM BR OVC010 
     FM190900 00000KT 4SM BR OVC008 
     FM191400 00000KT P6SM BKN015